createdAt,value
2022-10-09T00:01:06.351Z,100.00
2022-10-09T00:06:33.568Z,100.00
2022-10-09T00:11:55.469Z,100.00
2022-10-09T00:17:17.292Z,100.00
2022-10-09T00:22:39.435Z,100.00
2022-10-09T00:28:02.530Z,100.00
2022-10-09T00:33:24.514Z,100.00
2022-10-09T00:38:46.363Z,100.00
2022-10-09T00:44:47.017Z,100.00
2022-10-09T00:50:17.515Z,100.00
2022-10-09T00:55:40.138Z,100.00
2022-10-09T01:01:02.020Z,100.00
2022-10-09T01:06:48.152Z,100.00
2022-10-09T01:12:34.987Z,100.00
2022-10-09T01:18:12.333Z,100.00
2022-10-09T01:24:04.567Z,100.00
2022-10-09T01:29:31.915Z,100.00
2022-10-09T01:34:54.318Z,100.00
2022-10-09T01:40:18.124Z,100.00
2022-10-09T01:45:43.226Z,100.00
2022-10-09T01:51:05.742Z,100.00
2022-10-09T01:56:30.929Z,100.00
2022-10-09T02:01:54.100Z,100.00
2022-10-09T02:07:17.725Z,100.00
2022-10-09T02:12:45.761Z,100.00
2022-10-09T02:18:13.939Z,100.00
2022-10-09T02:23:39.139Z,100.00
2022-10-09T02:29:01.105Z,100.00
2022-10-09T02:34:23.057Z,100.00
2022-10-09T02:39:44.849Z,100.00
2022-10-09T02:45:07.535Z,100.00
2022-10-09T02:50:29.351Z,100.00
2022-10-09T02:55:51.186Z,100.00
2022-10-09T03:01:13.237Z,100.00
2022-10-09T03:06:35.033Z,100.00
2022-10-09T03:11:56.845Z,100.00
2022-10-09T03:17:18.759Z,100.00
2022-10-09T03:22:40.690Z,100.00
2022-10-09T03:28:02.957Z,100.00
2022-10-09T03:33:24.848Z,100.00
2022-10-09T03:38:46.732Z,100.00
2022-10-09T03:44:08.801Z,100.00
2022-10-09T03:49:30.772Z,100.00
2022-10-09T03:54:52.600Z,100.00
2022-10-09T04:00:15.263Z,100.00
2022-10-09T04:05:38.686Z,100.00
2022-10-09T04:11:01.157Z,100.00
2022-10-09T04:16:23.046Z,100.00
2022-10-09T04:21:44.950Z,100.00
2022-10-09T04:27:06.764Z,100.00
2022-10-09T04:32:28.594Z,100.00
2022-10-09T04:37:50.448Z,100.00
2022-10-09T04:43:12.333Z,100.00
2022-10-09T04:48:46.259Z,100.00
2022-10-09T04:54:09.255Z,100.00
2022-10-09T04:59:31.063Z,100.00
2022-10-09T05:04:52.934Z,100.00
2022-10-09T05:10:14.844Z,100.00
2022-10-09T05:15:37.418Z,100.00
2022-10-09T05:20:59.486Z,100.00
2022-10-09T05:26:23.482Z,100.00
2022-10-09T05:31:49.293Z,100.00
2022-10-09T05:37:11.591Z,100.00
2022-10-09T05:42:33.408Z,100.00
2022-10-09T05:47:55.278Z,100.00
2022-10-09T05:53:17.204Z,100.00
2022-10-09T05:58:39.030Z,100.00
2022-10-09T06:04:02.008Z,100.00
2022-10-09T06:09:25.290Z,100.00
2022-10-09T06:14:47.115Z,100.00
2022-10-09T06:20:10.178Z,100.00
2022-10-09T06:25:32.007Z,100.00
2022-10-09T06:30:53.923Z,100.00
2022-10-09T06:36:18.688Z,100.00
2022-10-09T06:41:40.913Z,100.00
2022-10-09T06:47:02.797Z,100.00
2022-10-09T06:52:24.631Z,100.00
2022-10-09T06:57:46.418Z,98.20
2022-10-09T07:03:08.307Z,97.24
2022-10-09T07:08:30.182Z,94.54
2022-10-09T07:13:56.052Z,92.39
2022-10-09T07:19:18.782Z,89.78
2022-10-09T07:24:40.678Z,89.18
2022-10-09T07:30:02.529Z,90.70
2022-10-09T07:35:26.953Z,90.63
2022-10-09T07:40:48.848Z,88.82
2022-10-09T07:46:16.188Z,87.31
2022-10-09T07:51:38.406Z,85.75
2022-10-09T07:57:01.334Z,83.41
2022-10-09T08:02:23.267Z,80.90
2022-10-09T08:07:45.220Z,80.03
2022-10-09T08:13:07.092Z,80.33
2022-10-09T08:18:28.904Z,80.65
2022-10-09T08:23:54.741Z,78.33
2022-10-09T08:29:16.546Z,79.83
2022-10-09T08:34:38.373Z,80.71
2022-10-09T08:40:00.227Z,80.31
2022-10-09T08:45:22.113Z,79.65
2022-10-09T08:50:49.970Z,79.41
2022-10-09T08:56:15.062Z,80.29
2022-10-09T09:01:43.376Z,77.86
2022-10-09T09:07:23.937Z,77.16
2022-10-09T09:12:55.197Z,77.25
2022-10-09T09:18:24.114Z,78.08
2022-10-09T09:23:47.364Z,74.81
2022-10-09T09:29:13.812Z,72.77
2022-10-09T09:34:41.347Z,72.31
2022-10-09T09:45:47.369Z,70.78
2022-10-09T09:51:28.795Z,71.99
2022-10-09T09:57:11.942Z,73.18
2022-10-09T10:02:35.029Z,73.12
2022-10-09T10:07:56.894Z,72.20
2022-10-09T10:13:21.872Z,71.06
2022-10-09T10:18:43.769Z,71.50
2022-10-09T10:24:11.955Z,70.28
2022-10-09T10:29:38.603Z,70.48
2022-10-09T10:35:00.280Z,73.79
2022-10-09T10:40:30.218Z,72.07
2022-10-09T10:46:13.013Z,72.21
2022-10-09T10:51:58.073Z,71.56
2022-10-09T10:57:46.765Z,73.12
2022-10-09T11:03:17.852Z,75.30
2022-10-09T11:09:01.159Z,74.23
2022-10-09T11:14:47.728Z,72.46
2022-10-09T11:20:15.374Z,73.53
2022-10-09T11:25:59.162Z,72.33
2022-10-09T11:31:43.026Z,69.93
2022-10-09T11:37:14.626Z,70.24
2022-10-09T11:42:36.577Z,71.10
2022-10-09T11:48:12.662Z,70.87
2022-10-09T11:53:35.578Z,69.95
2022-10-09T11:59:06.330Z,70.45
2022-10-09T12:04:50.011Z,69.80
2022-10-09T12:10:32.138Z,70.05
2022-10-09T12:15:57.088Z,70.39
2022-10-09T12:21:25.248Z,70.20
2022-10-09T12:26:49.621Z,71.24
2022-10-09T12:32:17.618Z,71.71
2022-10-09T12:37:39.409Z,71.32
2022-10-09T12:43:07.861Z,69.58
2022-10-09T12:48:38.713Z,68.87
2022-10-09T12:54:08.546Z,68.49
2022-10-09T12:59:30.501Z,68.37
2022-10-09T13:04:59.122Z,68.17
2022-10-09T13:10:23.717Z,65.68
2022-10-09T13:15:45.755Z,65.87
2022-10-09T13:21:16.575Z,65.10
2022-10-09T13:26:40.555Z,67.24
2022-10-09T13:32:02.473Z,65.78
2022-10-09T13:37:26.469Z,65.12
2022-10-09T13:42:55.696Z,64.72
2022-10-09T13:48:17.527Z,64.34
2022-10-09T13:53:39.415Z,64.50
2022-10-09T13:59:01.208Z,64.60
2022-10-09T14:04:23.305Z,66.99
2022-10-09T14:09:45.126Z,67.92
2022-10-09T14:15:07.380Z,68.25
2022-10-09T14:20:29.207Z,68.74
2022-10-09T14:25:51.102Z,67.44
2022-10-09T14:31:13.146Z,68.28
2022-10-09T14:36:34.946Z,69.46
2022-10-09T14:41:56.767Z,72.28
2022-10-09T14:47:18.584Z,70.85
2022-10-09T14:52:40.425Z,71.09
2022-10-09T14:58:02.279Z,71.52
2022-10-09T15:03:25.558Z,72.27
2022-10-09T15:08:47.445Z,73.28
2022-10-09T15:14:09.371Z,73.77
2022-10-09T15:19:31.225Z,74.29
2022-10-09T15:24:53.072Z,75.15
2022-10-09T15:30:15.078Z,75.44
2022-10-09T15:35:36.931Z,77.37
2022-10-09T15:40:58.843Z,78.36
2022-10-09T15:46:21.151Z,79.27
2022-10-09T15:51:43.097Z,80.72
2022-10-09T15:57:04.982Z,80.91
2022-10-09T16:02:26.828Z,81.54
2022-10-09T16:07:48.895Z,81.81
2022-10-09T16:13:11.162Z,83.68
2022-10-09T16:18:33.642Z,84.14
2022-10-09T16:23:58.816Z,84.76
2022-10-09T16:29:21.241Z,85.97
2022-10-09T16:34:43.189Z,85.31
2022-10-09T16:40:05.866Z,86.15
2022-10-09T16:45:28.341Z,86.26
2022-10-09T16:50:50.198Z,86.78
2022-10-09T16:56:16.965Z,87.36
2022-10-09T17:01:39.196Z,92.76
2022-10-09T17:07:01.107Z,88.58
2022-10-09T17:12:22.958Z,88.26
2022-10-09T17:17:44.776Z,88.93
2022-10-09T17:23:06.872Z,88.72
2022-10-09T17:28:28.808Z,88.47
2022-10-09T17:33:58.120Z,89.54
2022-10-09T17:39:19.968Z,90.32
2022-10-09T17:44:41.819Z,90.44
2022-10-09T17:50:03.967Z,90.45
2022-10-09T17:55:26.114Z,90.93
2022-10-09T18:00:48.078Z,91.16
2022-10-09T18:06:14.077Z,91.54
2022-10-09T18:11:36.088Z,92.65
2022-10-09T18:16:57.979Z,92.24
2022-10-09T18:22:19.793Z,92.66
2022-10-09T18:27:41.594Z,93.70
2022-10-09T18:33:03.491Z,93.48
2022-10-09T18:38:25.292Z,94.08
2022-10-09T18:43:48.042Z,94.35
2022-10-09T18:49:12.330Z,95.43
2022-10-09T18:54:34.314Z,96.80
2022-10-09T18:59:58.262Z,97.24
2022-10-09T19:05:20.057Z,98.12
2022-10-09T19:10:41.887Z,97.96
2022-10-09T19:16:03.762Z,98.12
2022-10-09T19:21:25.798Z,98.07
2022-10-09T19:26:47.606Z,100.00
2022-10-09T19:32:09.429Z,100.00
2022-10-09T19:37:31.244Z,99.73
2022-10-09T19:42:53.074Z,100.00
2022-10-09T19:48:15.759Z,100.00
2022-10-09T19:53:38.294Z,100.00
2022-10-09T19:59:02.835Z,100.00
2022-10-09T20:04:24.691Z,100.00
2022-10-09T20:09:46.515Z,100.00
2022-10-09T20:15:09.019Z,100.00
2022-10-09T20:20:30.831Z,100.00
2022-10-09T20:26:04.993Z,100.00
2022-10-09T20:31:27.912Z,100.00
2022-10-09T20:36:49.696Z,100.00
2022-10-09T20:42:11.571Z,100.00
2022-10-09T20:47:33.570Z,100.00
2022-10-09T20:52:55.369Z,100.00
2022-10-09T20:58:17.194Z,100.00
2022-10-09T21:03:39.254Z,100.00
2022-10-09T21:09:01.110Z,100.00
2022-10-09T21:14:22.942Z,100.00
2022-10-09T21:19:44.868Z,100.00
2022-10-09T21:25:07.024Z,100.00
2022-10-09T21:30:29.182Z,100.00
2022-10-09T21:35:52.191Z,100.00
2022-10-09T21:41:14.014Z,100.00
2022-10-09T21:46:36.705Z,100.00
2022-10-09T21:51:58.556Z,100.00
2022-10-09T21:57:20.519Z,100.00
2022-10-09T22:02:42.572Z,100.00
2022-10-09T22:08:04.411Z,100.00
2022-10-09T22:13:26.293Z,100.00
2022-10-09T22:18:48.117Z,100.00
2022-10-09T22:24:10.050Z,100.00
2022-10-09T22:29:31.901Z,100.00
2022-10-09T22:34:53.781Z,100.00
2022-10-09T22:40:15.789Z,100.00
2022-10-09T22:45:38.084Z,100.00
2022-10-09T22:51:01.872Z,100.00
2022-10-09T22:56:29.867Z,100.00
2022-10-09T23:01:54.521Z,100.00
2022-10-09T23:07:16.400Z,100.00
2022-10-09T23:12:38.244Z,100.00
2022-10-09T23:18:00.092Z,100.00
2022-10-09T23:23:22.517Z,100.00
2022-10-09T23:28:56.096Z,100.00
2022-10-09T23:34:17.955Z,100.00
2022-10-09T23:39:39.765Z,100.00
2022-10-09T23:45:01.772Z,100.00
2022-10-09T23:50:23.585Z,100.00
2022-10-09T23:55:45.793Z,100.00
